Time;durP1;ratioP1;P1;durP2;ratioP2;P2;SDS_P1;SDS_P2;PMS_P1;PMS_P2;Temp;Humidity;BMP_temperature;BMP_pressure;BME280_temperature;BME280_humidity;BME280_pressure;Samples;Min_cycle;Max_cycle;Signal;HPM_P1;HPM_P2
2023/07/20 00:02:11;;;;;;;6.50;3.20;;;;;;;20.21;60.20;99924.79;105218;1254;64883;-59
2023/07/20 00:04:39;;;;;;;9.10;4.10;;;;;;;20.23;60.01;99920.45;105463;1254;61372;-61
2023/07/20 00:07:06;;;;;;;5.60;3.10;;;;;;;20.19;60.20;99915.94;105428;1258;63776;-59
2023/07/20 00:09:34;;;;;;;6.30;3.10;;;;;;;20.03;60.58;99913.41;105377;1254;60599;-59
2023/07/20 00:12:01;;;;;;;5.40;3.10;;;;;;;20.00;60.80;99911.71;105371;1253;60482;-59
2023/07/20 00:14:29;;;;;;;6.10;3.80;;;;;;;20.00;61.07;99910.61;105273;1257;63610;-58
2023/07/20 00:16:56;;;;;;;5.40;2.90;;;;;;;20.00;61.24;99909.83;105475;1255;61390;-58
2023/07/20 00:19:25;;;;;;;5.00;3.00;;;;;;;20.12;60.63;99911.70;105400;1254;71396;-58
2023/07/20 00:21:53;;;;;;;6.90;3.40;;;;;;;19.98;60.99;99911.05;105431;1254;60509;-59
2023/07/20 00:24:21;;;;;;;7.80;3.10;;;;;;;19.92;61.13;99910.55;105365;1253;60432;-59
2023/07/20 00:26:49;;;;;;;7.60;3.50;;;;;;;19.87;61.09;99913.65;105383;1253;65580;-58
2023/07/20 00:29:17;;;;;;;6.90;3.20;;;;;;;19.83;61.25;99917.55;105383;1259;60428;-59
2023/07/20 00:31:46;;;;;;;6.70;3.30;;;;;;;19.79;61.68;99915.72;105522;1258;63754;-58
2023/07/20 00:34:15;;;;;;;8.30;3.10;;;;;;;19.77;61.94;99915.87;105287;1258;60587;-58
2023/07/20 00:36:43;;;;;;;5.20;2.80;;;;;;;19.77;62.17;99912.06;105415;1259;60403;-59
2023/07/20 00:39:11;;;;;;;6.80;3.50;;;;;;;19.89;62.02;99913.62;105348;1254;64918;-60
2023/07/20 00:41:38;;;;;;;4.70;3.00;;;;;;;19.84;62.01;99914.02;105299;1260;60369;-60
2023/07/20 00:44:06;;;;;;;7.40;3.20;;;;;;;19.77;62.15;99920.05;105300;1256;63688;-60
2023/07/20 00:46:33;;;;;;;6.30;3.30;;;;;;;19.68;62.20;99912.29;105380;1254;60464;-60
2023/07/20 00:49:01;;;;;;;6.70;3.50;;;;;;;19.61;62.13;99912.98;105419;1258;60400;-60
2023/07/20 00:51:29;;;;;;;7.20;3.40;;;;;;;19.57;62.17;99913.15;105435;1260;63718;-60
2023/07/20 00:53:56;;;;;;;6.00;3.10;;;;;;;19.56;62.05;99915.02;105351;1253;62699;-60
2023/07/20 00:56:24;;;;;;;7.20;3.10;;;;;;;19.55;62.10;99912.15;105372;1253;62471;-61
2023/07/20 00:58:52;;;;;;;6.80;3.10;;;;;;;19.54;62.00;99915.55;105278;1256;60650;-60
2023/07/20 01:01:22;;;;;;;7.00;3.50;;;;;;;19.53;62.08;99919.02;105370;1260;59930;-61
2023/07/20 01:03:50;;;;;;;6.80;4.30;;;;;;;19.53;62.02;99916.89;105177;1253;65942;-61
2023/07/20 01:06:33;;;;;;;7.50;3.50;;;;;;;19.51;61.98;99919.21;105352;1258;60401;-60
2023/07/20 01:09:26;;;;;;;7.60;3.50;;;;;;;19.49;61.91;99917.14;106156;1255;63673;-61
2023/07/20 01:11:58;;;;;;;9.10;3.40;;;;;;;19.45;62.13;99914.70;105379;1256;60543;-60
2023/07/20 01:14:26;;;;;;;7.60;3.10;;;;;;;19.42;62.49;99917.84;105343;1255;60788;-61
2023/07/20 01:16:53;;;;;;;5.70;3.40;;;;;;;19.41;62.60;99915.80;105362;1260;64990;-60
2023/07/20 01:19:21;;;;;;;5.00;3.10;;;;;;;19.41;62.63;99910.05;105431;1253;61735;-56
2023/07/20 01:22:04;;;;;;;6.00;3.40;;;;;;;19.40;62.58;99910.66;105312;1258;62531;-58
2023/07/20 01:24:40;;;;;;;6.50;3.50;;;;;;;19.36;62.82;99908.83;105336;1259;60438;-56
2023/07/20 01:27:20;;;;;;;10.80;3.90;;;;;;;19.30;62.89;99907.92;105250;1253;60544;-59
2023/07/20 01:30:00;;;;;;;6.80;3.70;;;;;;;19.24;62.88;99908.36;105154;1254;64958;-59
2023/07/20 01:32:27;;;;;;;6.20;3.30;;;;;;;19.20;62.85;99909.05;105424;1259;61300;-58
2023/07/20 01:34:55;;;;;;;5.90;3.30;;;;;;;19.17;62.93;99909.03;105272;1256;63695;-59
2023/07/20 01:37:27;;;;;;;7.50;3.50;;;;;;;19.17;62.93;99912.23;105207;1254;60874;-59
2023/07/20 01:39:55;;;;;;;5.80;3.60;;;;;;;19.15;62.95;99913.64;105518;1253;60560;-61
2023/07/20 01:42:23;;;;;;;6.20;3.50;;;;;;;19.11;62.98;99910.25;105396;1254;63688;-62
2023/07/20 01:44:52;;;;;;;6.60;3.90;;;;;;;19.08;63.06;99912.30;105391;1255;61950;-60
2023/07/20 01:47:20;;;;;;;5.70;3.50;;;;;;;19.04;63.19;99916.00;105333;1257;62478;-60
2023/07/20 01:49:47;;;;;;;7.80;3.80;;;;;;;19.00;63.31;99916.16;105199;1256;60483;-60
2023/07/20 01:52:15;;;;;;;6.20;4.10;;;;;;;18.97;63.35;99912.98;105318;1253;60864;-59
2023/07/20 01:54:43;;;;;;;5.90;3.30;;;;;;;18.97;63.40;99913.53;105597;1256;67263;-59
2023/07/20 01:57:10;;;;;;;5.30;3.20;;;;;;;18.97;63.52;99912.11;105416;1255;61381;-59
2023/07/20 01:59:37;;;;;;;6.20;3.60;;;;;;;18.96;63.59;99913.58;105233;1258;62472;-60
2023/07/20 02:02:05;;;;;;;5.90;3.40;;;;;;;18.93;63.63;99910.75;105247;1256;60554;-63
2023/07/20 02:04:33;;;;;;;5.30;3.40;;;;;;;18.88;63.75;99912.58;105393;1253;60527;-61
2023/07/20 02:07:00;;;;;;;5.50;3.60;;;;;;;18.84;63.72;99916.65;105344;1258;64944;-61
2023/07/20 02:09:27;;;;;;;5.80;3.60;;;;;;;18.80;63.62;99922.98;105324;1258;61476;-63
2023/07/20 02:11:55;;;;;;;6.70;3.20;;;;;;;18.77;63.66;99925.88;105479;1253;62422;-59
2023/07/20 02:14:23;;;;;;;6.00;4.00;;;;;;;18.74;63.75;99922.75;105345;1254;60685;-60
2023/07/20 02:16:57;;;;;;;6.40;3.60;;;;;;;18.76;63.78;99923.99;105458;1259;60366;-62
2023/07/20 02:19:27;;;;;;;7.80;3.70;;;;;;;18.73;63.82;99925.80;105405;1253;63722;-60
2023/07/20 02:21:55;;;;;;;5.70;3.80;;;;;;;18.67;63.92;99929.46;105468;1259;60438;-60
2023/07/20 02:24:22;;;;;;;5.90;3.80;;;;;;;18.64;63.92;99929.05;105212;1258;63775;-60
2023/07/20 02:26:50;;;;;;;8.60;4.00;;;;;;;18.61;63.89;99927.09;105445;1259;60448;-62
2023/07/20 02:29:18;;;;;;;6.40;3.80;;;;;;;18.59;63.80;99925.35;105544;1255;60502;-61
2023/07/20 02:31:45;;;;;;;6.90;3.70;;;;;;;18.58;63.79;99923.85;105433;1260;64861;-61
2023/07/20 02:34:13;;;;;;;7.10;3.60;;;;;;;18.58;63.78;99920.98;105363;1257;69528;-62
2023/07/20 02:36:42;;;;;;;7.80;3.70;;;;;;;18.56;63.82;99920.52;105325;1259;62459;-61
2023/07/20 02:39:10;;;;;;;7.20;4.10;;;;;;;18.54;63.98;99921.17;105434;1255;61719;-60
2023/07/20 02:41:37;;;;;;;6.30;3.60;;;;;;;18.54;64.02;99923.64;105367;1254;61581;-60
2023/07/20 02:44:05;;;;;;;6.80;3.50;;;;;;;18.52;64.08;99921.98;105454;1258;64928;-60
2023/07/20 02:46:34;;;;;;;5.60;3.50;;;;;;;18.48;64.11;99919.39;105341;1259;60468;-58
2023/07/20 02:49:01;;;;;;;9.40;4.30;;;;;;;18.49;63.99;99920.02;105507;1254;63741;-59
2023/07/20 02:51:29;;;;;;;6.20;3.80;;;;;;;18.49;63.81;99916.46;105329;1254;60535;-59
2023/07/20 02:53:56;;;;;;;9.40;4.50;;;;;;;18.49;63.56;99915.35;105324;1254;60610;-60
2023/07/20 02:56:24;;;;;;;7.90;4.60;;;;;;;18.52;63.41;99916.31;105192;1253;63660;-61
2023/07/20 02:58:52;;;;;;;8.40;4.70;;;;;;;18.62;63.15;99916.77;105331;1254;61608;-67
2023/07/20 03:01:19;;;;;;;7.90;4.90;;;;;;;18.71;62.93;99914.30;105942;1253;62544;-66
2023/07/20 03:03:50;;;;;;;7.10;4.30;;;;;;;18.74;62.93;99916.01;105942;1257;60431;-65
2023/07/20 03:06:17;;;;;;;6.70;3.90;;;;;;;18.81;63.01;99910.40;105881;1254;60505;-65
2023/07/20 03:08:47;;;;;;;6.10;3.60;;;;;;;18.84;62.99;99910.23;105896;1258;64942;-67
2023/07/20 03:11:16;;;;;;;7.10;4.60;;;;;;;18.89;63.10;99906.14;106610;1253;61344;-66
2023/07/20 03:13:44;;;;;;;9.20;3.90;;;;;;;19.01;62.89;99906.16;105873;1254;62421;-59
2023/07/20 03:16:15;;;;;;;6.90;4.30;;;;;;;19.07;62.90;99910.95;105500;1256;60445;-58
2023/07/20 03:18:42;;;;;;;8.20;4.20;;;;;;;19.13;63.09;99911.48;105423;1253;60504;-60
2023/07/20 03:21:13;;;;;;;7.30;3.80;;;;;;;19.18;62.98;99913.23;105364;1254;65029;-65
2023/07/20 03:23:41;;;;;;;7.00;4.00;;;;;;;19.24;63.09;99916.33;105993;1258;61443;-67
2023/07/20 03:26:09;;;;;;;6.60;4.40;;;;;;;19.31;62.95;99909.94;105893;1254;63834;-65
2023/07/20 03:28:37;;;;;;;6.90;4.10;;;;;;;19.39;63.08;99911.15;105621;1255;60422;-59
2023/07/20 03:31:05;;;;;;;7.30;4.50;;;;;;;19.43;63.06;99911.64;105440;1254;60369;-65
2023/07/20 03:33:35;;;;;;;6.90;4.10;;;;;;;19.47;63.03;99910.15;105916;1253;64898;-66
2023/07/20 03:36:03;;;;;;;7.30;4.60;;;;;;;19.44;63.26;99908.16;105665;1258;70266;-64
2023/07/20 03:38:30;;;;;;;6.30;4.50;;;;;;;19.31;63.73;99906.73;105375;1259;62608;-65
2023/07/20 03:40:59;;;;;;;10.50;4.40;;;;;;;19.34;63.81;99905.81;105273;1253;60582;-65
2023/07/20 03:43:27;;;;;;;7.30;4.40;;;;;;;19.55;63.27;99905.04;105878;1260;60385;-65
2023/07/20 03:45:56;;;;;;;6.30;4.10;;;;;;;19.52;63.22;99906.95;105909;1253;64953;-64
2023/07/20 03:48:24;;;;;;;6.70;4.30;;;;;;;19.64;63.04;99908.06;105894;1253;61411;-63
2023/07/20 03:50:52;;;;;;;8.00;5.30;;;;;;;19.73;62.75;99910.30;105960;1256;64995;-64
2023/07/20 03:53:20;;;;;;;7.30;5.00;;;;;;;19.73;62.43;99915.31;105886;1258;60645;-64
2023/07/20 03:55:48;;;;;;;8.00;4.80;;;;;;;19.72;62.31;99910.42;105927;1260;60379;-64
2023/07/20 03:58:16;;;;;;;8.50;5.00;;;;;;;19.73;62.27;99911.14;105916;1253;63658;-62
2023/07/20 04:00:48;;;;;;;7.50;4.60;;;;;;;19.76;62.27;99913.08;105893;1253;61376;-64
2023/07/20 04:03:15;;;;;;;7.60;4.40;;;;;;;19.81;62.26;99907.61;105973;1256;63992;-64
2023/07/20 04:05:44;;;;;;;8.10;4.90;;;;;;;19.85;62.12;99907.48;105544;1260;60800;-59
2023/07/20 04:08:11;;;;;;;8.10;4.80;;;;;;;19.89;62.21;99907.45;105546;1255;60449;-62
2023/07/20 04:10:39;;;;;;;8.20;4.70;;;;;;;19.92;62.38;99907.38;105324;1256;64975;-62
2023/07/20 04:13:07;;;;;;;7.50;4.80;;;;;;;19.94;62.38;99908.39;105316;1254;61342;-58
2023/07/20 04:15:34;;;;;;;7.10;4.60;;;;;;;19.80;62.59;99911.01;105429;1256;72931;-58
2023/07/20 04:18:02;;;;;;;7.50;4.10;;;;;;;19.81;62.45;99912.25;105269;1254;60484;-58
2023/07/20 04:20:29;;;;;;;7.70;4.60;;;;;;;19.94;62.21;99909.78;105229;1253;60548;-49
2023/07/20 04:22:57;;;;;;;7.30;4.60;;;;;;;19.99;62.28;99913.10;105287;1253;65049;-55
2023/07/20 04:25:25;;;;;;;8.20;4.20;;;;;;;20.20;61.99;99911.21;106452;1257;60478;-55
2023/07/20 04:27:53;;;;;;;7.20;4.80;;;;;;;20.31;61.84;99911.60;105403;1260;66935;-55
2023/07/20 04:30:22;;;;;;;8.40;4.40;;;;;;;20.38;61.78;99913.52;105237;1255;60562;-55
2023/07/20 04:32:50;;;;;;;6.70;4.40;;;;;;;20.46;61.64;99914.27;105403;1253;60502;-54
2023/07/20 04:35:50;;;;;;;7.50;4.30;;;;;;;20.55;61.69;99913.64;105287;1259;63721;-55
2023/07/20 04:38:29;;;;;;;9.90;4.20;;;;;;;20.67;61.30;99911.89;105382;1257;61295;-54
2023/07/20 04:41:15;;;;;;;9.90;4.70;;;;;;;20.74;60.73;99915.38;105120;1260;63755;-55
2023/07/20 04:43:46;;;;;;;9.90;4.80;;;;;;;20.65;60.70;99911.00;105144;1258;62853;-54
2023/07/20 04:46:19;;;;;;;7.10;4.30;;;;;;;20.74;60.65;99909.61;106189;1254;60563;-53
2023/07/20 04:48:47;;;;;;;6.50;4.10;;;;;;;20.88;60.51;99907.89;109115;1253;64953;-57
2023/07/20 04:51:17;;;;;;;9.20;4.50;;;;;;;20.93;60.20;99912.19;108995;1254;61323;-53
2023/07/20 04:53:45;;;;;;;6.40;3.50;;;;;;;21.06;60.14;99916.58;108783;1256;63790;-55
2023/07/20 04:56:13;;;;;;;6.70;4.00;;;;;;;21.19;59.89;99915.15;105329;1256;60466;-53
2023/07/20 04:58:41;;;;;;;7.40;4.40;;;;;;;21.31;59.63;99913.55;105366;1259;60564;-52
2023/07/20 05:01:08;;;;;;;8.00;3.10;;;;;;;21.42;59.80;99911.44;105454;1256;64926;-53
2023/07/20 05:03:36;;;;;;;7.20;3.90;;;;;;;21.50;59.84;99907.09;105399;1259;60508;-60
2023/07/20 05:06:04;;;;;;;6.70;3.30;;;;;;;21.58;59.09;99908.77;105346;1256;64244;-60
2023/07/20 05:08:32;;;;;;;7.90;4.20;;;;;;;21.65;58.36;99908.27;105392;1258;60506;-60
2023/07/20 05:10:59;;;;;;;7.00;3.20;;;;;;;21.74;58.00;99911.65;105350;1258;61007;-61
2023/07/20 05:13:27;;;;;;;6.80;3.80;;;;;;;21.79;57.28;99909.14;105377;1253;65007;-61
2023/07/20 05:15:54;;;;;;;6.70;3.80;;;;;;;21.82;57.18;99910.28;105331;1261;62012;-59
2023/07/20 05:18:22;;;;;;;6.60;4.40;;;;;;;21.77;57.12;99904.72;105371;1256;63732;-60
2023/07/20 05:20:51;;;;;;;5.40;3.80;;;;;;;21.91;56.84;99901.70;105329;1256;60625;-57
2023/07/20 05:23:19;;;;;;;7.30;3.70;;;;;;;21.98;56.20;99896.73;105434;1253;60430;-59
2023/07/20 05:25:57;;;;;;;9.80;5.00;;;;;;;21.99;56.61;99893.89;105428;1253;64867;-58
2023/07/20 05:28:28;;;;;;;11.30;5.60;;;;;;;21.94;57.93;99885.41;105529;1258;60485;-58
2023/07/20 05:30:55;;;;;;;8.50;5.40;;;;;;;21.98;58.72;99886.07;105469;1259;62462;-58
2023/07/20 05:33:22;;;;;;;6.90;4.30;;;;;;;22.07;59.00;99883.69;105450;1256;60428;-58
2023/07/20 05:35:50;;;;;;;6.30;4.10;;;;;;;22.17;59.33;99879.13;105386;1258;60285;-58
2023/07/20 05:38:17;;;;;;;6.30;4.10;;;;;;;22.26;59.46;99883.31;105468;1253;64963;-58
2023/07/20 05:40:45;;;;;;;8.00;4.20;;;;;;;22.35;59.36;99884.70;105507;1253;61397;-57
2023/07/20 05:43:12;;;;;;;6.60;4.50;;;;;;;22.47;59.03;99878.46;105422;1258;62618;-58
2023/07/20 05:45:44;;;;;;;8.20;4.10;;;;;;;22.67;58.56;99881.67;105501;1254;60607;-58
2023/07/20 05:48:13;;;;;;;6.20;3.70;;;;;;;22.78;58.44;99882.02;105597;1258;60532;-58
2023/07/20 05:50:43;;;;;;;7.10;3.30;;;;;;;22.86;58.20;99879.24;105550;1253;64920;-57
2023/07/20 05:53:13;;;;;;;6.30;3.30;;;;;;;22.94;57.79;99875.23;105448;1253;61391;-63
2023/07/20 05:55:40;;;;;;;6.40;3.30;;;;;;;22.91;57.71;99875.55;105497;1253;63737;-59
2023/07/20 06:00:04;;;;;;;6.70;3.50;;;;;;;22.77;57.84;99874.27;103829;1295;602616;-86
2023/07/20 06:02:39;;;;;;;6.80;3.70;;;;;;;22.93;57.12;99875.66;105972;1267;59173;-84
2023/07/20 06:06:00;;;;;;;6.50;3.70;;;;;;;22.87;57.11;99875.02;102465;1293;603865;-59
2023/07/20 06:08:28;;;;;;;5.70;3.20;;;;;;;23.02;56.69;99876.87;104492;1268;59397;-59
2023/07/20 06:10:56;;;;;;;5.90;3.70;;;;;;;23.11;56.40;99876.91;104230;1272;59531;-55
2023/07/20 06:13:25;;;;;;;4.90;3.00;;;;;;;23.21;56.31;99880.73;105153;1270;63493;-56
2023/07/20 06:15:53;;;;;;;6.40;3.00;;;;;;;23.29;56.07;99886.98;104666;1270;61399;-56
2023/07/20 06:18:22;;;;;;;8.20;3.40;;;;;;;23.37;55.79;99884.66;104591;1266;159418;-58
2023/07/20 06:20:51;;;;;;;6.40;3.50;;;;;;;23.45;55.74;99879.42;104850;1269;59323;-58
2023/07/20 06:23:19;;;;;;;5.80;2.80;;;;;;;23.51;55.20;99877.05;104594;1269;59445;-57
2023/07/20 06:25:47;;;;;;;5.20;2.60;;;;;;;23.56;54.03;99875.96;104945;1269;62027;-56
2023/07/20 06:28:14;;;;;;;5.90;3.00;;;;;;;23.62;53.47;99871.59;105009;1273;60231;-58
2023/07/20 06:30:42;;;;;;;8.90;3.00;;;;;;;23.67;52.15;99871.42;104728;1264;62499;-58
2023/07/20 06:33:09;;;;;;;6.30;2.50;;;;;;;23.70;51.87;99869.95;104891;1268;59768;-57
2023/07/20 06:35:37;;;;;;;7.10;2.90;;;;;;;23.78;51.70;99869.88;104680;1267;59759;-55
2023/07/20 06:38:04;;;;;;;5.40;2.90;;;;;;;23.95;50.69;99868.59;105264;1260;64101;-56
2023/07/20 06:40:35;;;;;;;7.20;2.30;;;;;;;23.90;50.10;99873.33;105351;1264;60103;-55
2023/07/20 06:43:02;;;;;;;5.90;2.70;;;;;;;24.08;49.92;99874.53;105254;1261;63719;-58
2023/07/20 06:45:33;;;;;;;7.80;3.30;;;;;;;24.18;49.43;99876.32;105076;1260;59784;-56
2023/07/20 06:48:00;;;;;;;6.90;3.30;;;;;;;24.23;49.68;99878.41;105541;1257;59732;-57
2023/07/20 06:50:28;;;;;;;5.60;2.90;;;;;;;24.27;49.87;99883.27;105106;1260;62800;-58
2023/07/20 06:52:55;;;;;;;6.20;2.70;;;;;;;24.17;49.74;99888.77;105182;1260;70556;-59
2023/07/20 06:55:26;;;;;;;7.80;3.00;;;;;;;24.11;48.99;99889.67;105126;1260;64178;-57
2023/07/20 06:57:58;;;;;;;6.50;3.00;;;;;;;24.11;48.71;99886.36;105318;1260;59719;-57
2023/07/20 07:00:26;;;;;;;5.20;2.60;;;;;;;24.16;48.52;99886.23;105225;1260;59551;-59
2023/07/20 07:02:53;;;;;;;9.80;3.30;;;;;;;24.21;48.39;99879.22;105279;1260;64111;-60
2023/07/20 07:05:21;;;;;;;12.30;3.60;;;;;;;24.27;47.75;99879.02;105718;1260;60161;-59
2023/07/20 07:07:49;;;;;;;11.90;3.20;;;;;;;24.34;46.69;99879.52;105389;1262;63778;-58
2023/07/20 07:10:16;;;;;;;7.90;3.50;;;;;;;24.41;46.30;99878.56;105078;1260;59682;-58
2023/07/20 07:12:44;;;;;;;8.00;3.20;;;;;;;24.48;46.03;99878.52;105032;1263;59647;-58
2023/07/20 07:15:11;;;;;;;7.50;3.10;;;;;;;24.55;45.76;99880.39;109123;1257;62970;-58
2023/07/20 07:17:39;;;;;;;6.00;2.50;;;;;;;24.63;45.65;99881.55;108991;1257;60122;-59
2023/07/20 07:20:07;;;;;;;5.00;2.40;;;;;;;24.73;46.50;99880.73;109049;1257;62658;-59
2023/07/20 07:22:38;;;;;;;5.10;2.00;;;;;;;24.84;45.90;99873.96;108642;1256;58431;-58
2023/07/20 07:25:07;;;;;;;5.50;2.70;;;;;;;24.94;45.98;99872.90;105452;1258;59615;-62
2023/07/20 07:27:35;;;;;;;5.90;2.30;;;;;;;25.06;45.68;99872.27;105320;1260;62837;-59
2023/07/20 07:30:04;;;;;;;4.70;2.10;;;;;;;25.30;45.29;99869.05;105256;1260;62001;-56
2023/07/20 07:32:31;;;;;;;7.60;2.60;;;;;;;25.39;44.62;99870.80;105332;1258;63713;-58
2023/07/20 07:35:00;;;;;;;5.10;2.20;;;;;;;25.31;44.38;99866.19;105371;1257;59724;-56
2023/07/20 07:37:28;;;;;;;4.90;2.40;;;;;;;25.24;44.19;99860.55;105402;1257;59512;-57
2023/07/20 07:40:03;;;;;;;5.90;2.10;;;;;;;25.27;44.37;99860.44;105320;1260;64155;-57
2023/07/20 07:42:31;;;;;;;4.90;1.70;;;;;;;25.32;44.33;99856.39;105466;1257;61362;-57
2023/07/20 07:44:58;;;;;;;4.70;2.20;;;;;;;25.35;43.98;99857.17;105299;1258;64008;-56
2023/07/20 07:47:26;;;;;;;5.20;2.20;;;;;;;25.36;43.13;99859.84;105405;1257;59786;-56
2023/07/20 07:49:53;;;;;;;6.40;2.40;;;;;;;25.37;42.66;99856.80;105623;1252;59580;-56
2023/07/20 07:52:21;;;;;;;6.00;2.60;;;;;;;25.39;42.82;99856.80;105569;1257;64229;-56
2023/07/20 07:54:49;;;;;;;4.50;1.90;;;;;;;25.43;43.23;99852.15;105681;1254;61418;-57
2023/07/20 07:57:16;;;;;;;5.70;2.20;;;;;;;25.48;43.37;99853.01;105593;1255;63835;-56
2023/07/20 07:59:44;;;;;;;5.40;2.10;;;;;;;25.52;43.02;99854.52;105605;1254;60546;-58
2023/07/20 08:02:12;;;;;;;4.80;2.10;;;;;;;25.57;42.61;99855.59;105657;1254;59624;-59
2023/07/20 08:04:39;;;;;;;5.80;2.40;;;;;;;25.63;42.13;99854.53;105545;1256;64127;-59
2023/07/20 08:07:07;;;;;;;3.80;1.80;;;;;;;25.69;42.02;99856.83;105626;1253;61574;-59
2023/07/20 08:09:35;;;;;;;4.60;2.00;;;;;;;25.76;41.55;99855.61;105492;1257;63743;-59
2023/07/20 08:12:03;;;;;;;5.40;1.80;;;;;;;25.83;41.60;99857.60;105472;1255;59791;-57
2023/07/20 08:14:31;;;;;;;4.70;1.90;;;;;;;25.90;41.21;99857.67;105497;1257;59756;-57
2023/07/20 08:16:58;;;;;;;5.60;2.20;;;;;;;25.99;40.90;99860.56;105619;1257;64123;-57
2023/07/20 08:19:26;;;;;;;7.50;2.30;;;;;;;26.05;41.11;99862.75;105466;1254;61220;-57
2023/07/20 08:21:54;;;;;;;6.80;2.00;;;;;;;26.14;40.92;99863.38;105542;1255;72396;-57
2023/07/20 08:24:21;;;;;;;9.70;3.10;;;;;;;26.21;40.42;99862.33;105625;1257;59720;-58
2023/07/20 08:26:49;;;;;;;5.60;2.30;;;;;;;26.32;40.19;99864.84;105689;1251;59729;-57
2023/07/20 08:29:16;;;;;;;4.30;2.10;;;;;;;26.43;40.56;99861.61;105649;1254;64717;-58
2023/07/20 08:31:45;;;;;;;6.00;2.30;;;;;;;26.51;40.25;99860.85;105442;1257;61377;-58
2023/07/20 08:34:13;;;;;;;5.10;2.10;;;;;;;26.57;40.07;99855.34;107195;1255;63734;-58
2023/07/20 08:36:58;;;;;;;6.10;2.20;;;;;;;26.63;39.82;99846.14;105602;1254;59705;-58
2023/07/20 08:39:26;;;;;;;6.50;2.20;;;;;;;26.68;40.03;99843.83;105486;1255;59529;-57
2023/07/20 08:41:54;;;;;;;4.70;2.10;;;;;;;26.76;40.47;99844.29;105620;1255;63102;-59
2023/07/20 08:44:23;;;;;;;6.10;2.40;;;;;;;26.86;40.37;99841.84;106007;1255;60244;-55
2023/07/20 08:46:50;;;;;;;6.50;2.20;;;;;;;26.97;39.33;99845.16;105529;1255;63663;-59
2023/07/20 08:49:18;;;;;;;4.60;1.80;;;;;;;27.06;39.10;99844.52;105465;1253;59732;-58
2023/07/20 08:51:46;;;;;;;3.70;1.90;;;;;;;27.16;38.95;99841.59;105500;1255;59698;-57
2023/07/20 08:54:14;;;;;;;6.30;2.10;;;;;;;27.25;39.39;99841.46;105417;1260;64175;-57
2023/07/20 08:56:41;;;;;;;5.40;2.20;;;;;;;27.34;38.43;99839.87;105388;1254;61362;-59
2023/07/20 08:59:09;;;;;;;6.60;2.40;;;;;;;27.38;38.30;99840.46;105522;1254;63769;-58
2023/07/20 09:01:37;;;;;;;6.30;2.30;;;;;;;27.44;38.77;99834.77;105455;1254;59765;-58
2023/07/20 09:04:04;;;;;;;4.30;2.10;;;;;;;27.50;38.81;99831.92;105315;1257;60524;-57
2023/07/20 09:06:34;;;;;;;7.40;2.50;;;;;;;27.53;38.30;99829.61;105480;1254;64050;-58
2023/07/20 09:09:02;;;;;;;4.40;2.10;;;;;;;27.53;38.20;99828.27;105561;1253;61301;-57
2023/07/20 09:11:30;;;;;;;5.70;1.70;;;;;;;27.62;37.65;99824.27;105646;1257;63732;-59
2023/07/20 09:14:07;;;;;;;5.00;2.10;;;;;;;27.66;37.78;99823.45;105515;1255;59742;-58
2023/07/20 09:16:51;;;;;;;5.00;2.00;;;;;;;27.51;38.05;99821.52;105667;1257;59659;-58
2023/07/20 09:19:18;;;;;;;6.40;2.60;;;;;;;27.49;38.08;99816.95;105620;1257;71489;-58
2023/07/20 09:21:47;;;;;;;5.00;2.00;;;;;;;27.52;38.13;99816.13;106006;1254;61307;-58
2023/07/20 09:24:17;;;;;;;4.80;2.40;;;;;;;27.59;38.26;99816.55;105554;1261;62524;-58
2023/07/20 09:26:45;;;;;;;7.70;2.60;;;;;;;27.70;37.55;99816.85;105767;1253;59661;-59
2023/07/20 09:29:18;;;;;;;5.90;2.00;;;;;;;27.87;36.98;99816.61;106210;1254;59782;-58
2023/07/20 09:32:02;;;;;;;5.70;2.50;;;;;;;28.10;37.12;99813.77;105485;1254;63005;-58
2023/07/20 09:34:32;;;;;;;5.30;2.40;;;;;;;28.05;36.67;99811.91;105669;1254;61430;-56
2023/07/20 09:37:03;;;;;;;4.30;2.00;;;;;;;28.07;36.18;99812.21;105544;1253;64076;-57
2023/07/20 09:39:32;;;;;;;4.70;2.20;;;;;;;28.12;35.06;99811.66;105707;1253;59740;-58
2023/07/20 09:42:01;;;;;;;5.20;1.90;;;;;;;28.15;34.07;99811.27;105661;1252;59508;-57
2023/07/20 09:44:32;;;;;;;4.80;2.00;;;;;;;28.19;33.75;99808.92;105880;1251;64647;-57
2023/07/20 09:47:03;;;;;;;4.20;1.60;;;;;;;28.24;34.20;99808.77;105641;1254;61567;-58
2023/07/20 09:49:32;;;;;;;6.20;2.10;;;;;;;28.31;34.00;99812.59;105619;1259;62422;-58
2023/07/20 09:52:19;;;;;;;4.50;2.00;;;;;;;28.39;34.44;99810.18;105585;1254;59711;-56
2023/07/20 09:54:50;;;;;;;4.20;1.80;;;;;;;28.47;34.89;99806.85;105470;1258;59569;-57
2023/07/20 09:57:18;;;;;;;5.50;2.10;;;;;;;28.56;34.89;99805.77;105568;1259;64156;-59
2023/07/20 09:59:45;;;;;;;4.90;2.10;;;;;;;28.62;34.61;99805.14;105575;1256;61299;-58
2023/07/20 10:02:21;;;;;;;5.00;2.10;;;;;;;28.68;34.12;99802.10;105565;1254;63747;-57
2023/07/20 10:04:50;;;;;;;4.90;1.90;;;;;;;28.70;34.04;99795.73;105573;1252;59644;-57
2023/07/20 10:07:20;;;;;;;6.00;2.40;;;;;;;28.74;34.05;99797.11;105628;1254;59724;-58
2023/07/20 10:09:48;;;;;;;5.20;2.20;;;;;;;28.77;34.28;99795.85;105875;1254;63626;-57
2023/07/20 10:14:59;;;;;;;;;;;;;;;28.81;35.42;99796.05;104185;1287;599908;-85
2023/07/20 10:18:33;;;;;;;;;;;;;;;28.95;34.42;99791.61;104030;1290;600416;-87
2023/07/20 10:21:01;;;;;;;7.70;2.50;;;;;;;29.16;34.06;99788.41;106445;1267;59106;-86
2023/07/20 10:23:34;;;;;;;4.60;2.10;;;;;;;29.26;34.33;99784.80;105760;1266;59331;-87
2023/07/20 10:26:03;;;;;;;7.40;2.20;;;;;;;29.35;34.61;99784.31;105833;1257;63632;-87
2023/07/20 10:28:32;;;;;;;5.20;2.00;;;;;;;29.47;34.90;99783.67;105977;1258;62020;-87
2023/07/20 10:31:02;;;;;;;5.20;2.10;;;;;;;29.60;34.01;99781.14;107328;1257;222411;-86
2023/07/20 10:33:32;;;;;;;5.80;2.10;;;;;;;29.71;33.49;99778.21;106693;1251;59347;-86
2023/07/20 10:36:03;;;;;;;5.10;1.90;;;;;;;29.75;33.56;99777.30;106945;1252;59250;-87
2023/07/20 10:38:51;;;;;;;6.20;2.10;;;;;;;29.75;33.96;99777.69;106776;1254;64028;-86
2023/07/20 10:41:26;;;;;;;6.50;2.20;;;;;;;29.80;34.17;99772.10;107017;1253;62123;-87
2023/07/20 10:44:02;;;;;;;9.60;2.10;;;;;;;29.91;34.29;99768.07;106715;1251;66055;-87
2023/07/20 10:46:40;;;;;;;8.60;2.20;;;;;;;30.02;33.78;99763.87;107815;1251;59496;-88
2023/07/20 10:49:10;;;;;;;5.30;2.10;;;;;;;30.12;33.60;99759.77;106891;1251;59584;-90
2023/07/20 10:51:47;;;;;;;4.30;1.80;;;;;;;30.20;33.14;99759.36;107163;1251;64911;-86
2023/07/20 10:54:17;;;;;;;5.10;1.90;;;;;;;30.30;33.69;99760.46;106716;1251;70160;-87
2023/07/20 10:56:49;;;;;;;8.20;2.70;;;;;;;30.36;32.58;99760.00;106595;1251;71672;-85
2023/07/20 10:59:25;;;;;;;5.20;2.10;;;;;;;30.43;33.11;99757.96;106366;1254;59769;-87
2023/07/20 11:01:56;;;;;;;4.70;2.10;;;;;;;30.47;32.17;99752.27;106544;1250;61071;-88
2023/07/20 11:04:47;;;;;;;6.60;2.30;;;;;;;30.48;32.42;99748.23;107008;1251;63430;-86
2023/07/20 11:07:40;;;;;;;4.20;1.90;;;;;;;30.50;32.39;99744.83;107182;1259;60351;-86
2023/07/20 11:10:14;;;;;;;5.90;2.00;;;;;;;30.48;32.80;99740.91;106432;1259;72499;-85
2023/07/20 11:13:19;;;;;;;5.10;2.30;;;;;;;30.58;32.71;99735.10;106540;1251;59672;-87
2023/07/20 11:16:03;;;;;;;4.30;1.90;;;;;;;30.73;32.36;99738.73;106672;1250;59630;-87
2023/07/20 11:18:39;;;;;;;4.70;2.10;;;;;;;30.81;31.95;99740.80;106464;1251;64615;-84
2023/07/20 11:21:09;;;;;;;4.20;1.70;;;;;;;30.87;31.52;99740.85;106641;1251;61526;-88
2023/07/20 11:23:42;;;;;;;8.30;3.50;;;;;;;30.93;30.87;99741.89;107044;1251;64125;-89
2023/07/20 11:26:12;;;;;;;6.30;2.60;;;;;;;30.91;31.33;99739.66;107366;1256;59648;-89
2023/07/20 11:28:39;;;;;;;4.80;2.30;;;;;;;31.00;31.66;99731.94;106577;1256;59666;-87
2023/07/20 11:31:07;;;;;;;5.50;2.40;;;;;;;31.17;31.28;99729.20;106897;1256;62866;-84
2023/07/20 11:33:34;;;;;;;5.70;2.10;;;;;;;31.17;31.57;99726.91;106274;1256;61340;-84
2023/07/20 11:36:02;;;;;;;10.20;2.40;;;;;;;31.09;32.08;99730.80;106306;1256;63739;-89
2023/07/20 11:38:49;;;;;;;5.80;2.10;;;;;;;31.11;31.79;99729.54;106356;1256;59691;-86
2023/07/20 11:41:17;;;;;;;4.50;1.90;;;;;;;31.16;31.44;99722.67;106582;1259;59665;-90
2023/07/20 11:43:45;;;;;;;3.90;1.90;;;;;;;31.21;31.19;99715.48;106267;1255;62843;-90